createdAt,value
2017-10-26T00:01:19.500Z,100994
2017-10-26T00:03:48.526Z,100983
2017-10-26T00:06:16.831Z,100991
2017-10-26T00:08:45.103Z,100994
2017-10-26T00:11:13.364Z,100988
2017-10-26T00:13:41.666Z,100997
2017-10-26T00:16:09.938Z,101010
2017-10-26T00:18:38.774Z,101010
2017-10-26T00:21:07.084Z,101011
2017-10-26T00:23:35.325Z,101007
2017-10-26T00:26:04.893Z,101019
2017-10-26T00:28:33.204Z,101017
2017-10-26T00:31:02.252Z,100997
2017-10-26T00:33:31.148Z,100997
2017-10-26T00:35:59.426Z,101020
2017-10-26T00:38:27.687Z,101022
2017-10-26T00:40:55.963Z,101023
2017-10-26T00:43:24.224Z,101032
2017-10-26T00:45:52.921Z,101033
2017-10-26T00:48:21.201Z,101041
2017-10-26T00:50:49.483Z,101044
2017-10-26T00:53:17.792Z,101045
2017-10-26T00:55:46.097Z,101037
2017-10-26T00:58:14.339Z,101047
2017-10-26T01:00:43.059Z,101044
2017-10-26T01:03:11.339Z,101045
2017-10-26T01:05:39.596Z,101042
2017-10-26T01:08:08.686Z,101044
2017-10-26T01:10:37.773Z,101043
2017-10-26T01:13:06.075Z,101034
2017-10-26T01:15:34.396Z,101035
2017-10-26T01:18:02.654Z,101036
2017-10-26T01:20:30.925Z,101042
2017-10-26T01:22:59.278Z,101039
2017-10-26T01:25:27.557Z,101042
2017-10-26T01:27:55.840Z,101042
2017-10-26T01:30:24.161Z,101039
2017-10-26T01:32:52.421Z,101026
2017-10-26T01:35:20.673Z,101031
2017-10-26T01:37:48.996Z,101030
2017-10-26T01:40:17.294Z,101042
2017-10-26T01:42:45.960Z,101043
2017-10-26T01:45:14.211Z,101045
2017-10-26T01:47:42.465Z,101041
2017-10-26T01:50:11.172Z,101054
2017-10-26T01:52:39.434Z,101073
2017-10-26T01:55:07.691Z,101053
2017-10-26T01:57:36.031Z,101048
2017-10-26T02:00:05.087Z,101045
2017-10-26T02:02:33.362Z,101036
2017-10-26T02:05:01.744Z,101042
2017-10-26T02:07:30.028Z,101062
2017-10-26T02:09:58.317Z,101065
2017-10-26T02:12:26.659Z,101063
2017-10-26T02:14:54.938Z,101068
2017-10-26T02:17:23.186Z,101065
2017-10-26T02:19:51.461Z,101052
2017-10-26T02:22:19.746Z,101041
2017-10-26T02:24:48.084Z,101051
2017-10-26T02:27:16.376Z,101050
2017-10-26T02:30:03.265Z,101063
2017-10-26T02:32:31.528Z,101054
2017-10-26T02:34:59.818Z,101054
2017-10-26T02:37:28.179Z,101045
2017-10-26T02:39:56.422Z,101050
2017-10-26T02:42:24.705Z,101053
2017-10-26T02:44:53.033Z,101063
2017-10-26T02:47:21.368Z,101071
2017-10-26T02:49:49.665Z,101078
2017-10-26T02:52:18.020Z,101080
2017-10-26T02:54:46.310Z,101082
2017-10-26T02:57:14.599Z,101089
2017-10-26T02:59:42.923Z,101091
2017-10-26T03:02:11.203Z,101081
2017-10-26T03:04:39.477Z,101087
2017-10-26T03:07:07.844Z,101085
2017-10-26T03:09:36.883Z,101094
2017-10-26T03:12:05.157Z,101096
2017-10-26T03:14:33.451Z,101110
2017-10-26T03:17:01.697Z,101110
2017-10-26T03:19:30.782Z,101114
2017-10-26T03:21:59.045Z,101103
2017-10-26T03:24:27.296Z,101107
2017-10-26T03:26:56.732Z,101094
2017-10-26T03:29:25.027Z,101095
2017-10-26T03:31:53.295Z,101105
2017-10-26T03:34:21.621Z,101116
2017-10-26T03:36:49.893Z,101114
2017-10-26T03:39:18.178Z,101118
2017-10-26T03:41:46.889Z,101104
2017-10-26T03:44:15.140Z,101104
2017-10-26T03:46:44.180Z,101109
2017-10-26T03:49:12.517Z,101110
2017-10-26T03:51:41.543Z,101096
2017-10-26T03:54:09.810Z,101096
2017-10-26T03:56:38.164Z,101103
2017-10-26T03:59:07.197Z,101096
2017-10-26T04:01:35.557Z,101110
2017-10-26T04:04:03.879Z,101090
2017-10-26T04:06:32.173Z,101095
2017-10-26T04:09:00.447Z,101083
2017-10-26T04:11:28.812Z,101072
2017-10-26T04:13:57.107Z,101085
2017-10-26T04:16:25.483Z,101087
2017-10-26T04:18:54.598Z,101081
2017-10-26T04:21:23.656Z,101086
2017-10-26T04:23:51.934Z,101077
2017-10-26T04:26:20.281Z,101074
2017-10-26T04:28:48.532Z,101070
2017-10-26T04:31:16.813Z,101058
2017-10-26T04:33:45.198Z,101051
2017-10-26T04:36:13.466Z,101059
2017-10-26T04:38:41.762Z,101059
2017-10-26T04:41:10.117Z,101068
2017-10-26T04:43:38.386Z,101058
2017-10-26T04:46:06.655Z,101067
2017-10-26T04:48:34.941Z,101056
2017-10-26T04:51:03.212Z,101054
2017-10-26T04:53:31.561Z,101062
2017-10-26T04:55:59.852Z,101059
2017-10-26T04:58:28.906Z,101066
2017-10-26T05:00:57.734Z,101071
2017-10-26T05:03:26.772Z,101072
2017-10-26T05:05:55.038Z,101079
2017-10-26T05:08:23.371Z,101094
2017-10-26T05:10:52.404Z,101090
2017-10-26T05:13:20.700Z,101094
2017-10-26T05:15:49.488Z,101100
2017-10-26T05:18:18.552Z,101099
2017-10-26T05:20:46.803Z,101092
2017-10-26T05:23:17.455Z,101089
2017-10-26T05:25:45.753Z,101083
2017-10-26T05:28:14.015Z,101078
2017-10-26T05:30:42.322Z,101077
2017-10-26T05:33:10.585Z,101085
2017-10-26T05:35:38.846Z,101100
2017-10-26T05:38:07.657Z,101088
2017-10-26T05:40:35.918Z,101108
2017-10-26T05:43:04.203Z,101102
2017-10-26T05:45:32.535Z,101109
2017-10-26T05:48:01.619Z,101115
2017-10-26T05:50:30.700Z,101109
2017-10-26T05:52:59.720Z,101127
2017-10-26T05:55:28.780Z,101123
2017-10-26T05:57:57.090Z,101121
2017-10-26T06:00:26.234Z,101119
2017-10-26T06:02:54.549Z,101118
2017-10-26T06:05:22.799Z,101122
2017-10-26T06:07:51.126Z,101137
2017-10-26T06:10:19.377Z,101126
2017-10-26T06:12:47.689Z,101129
2017-10-26T06:15:16.000Z,101117
2017-10-26T06:17:44.281Z,101130
2017-10-26T06:20:12.614Z,101117
2017-10-26T06:22:40.966Z,101125
2017-10-26T06:25:10.008Z,101142
2017-10-26T06:27:38.282Z,101145
2017-10-26T06:30:07.046Z,101136
2017-10-26T06:32:35.364Z,101133
2017-10-26T06:35:03.632Z,101129
2017-10-26T06:37:32.376Z,101129
2017-10-26T06:40:00.696Z,101141
2017-10-26T06:42:28.960Z,101151
2017-10-26T06:44:57.775Z,101148
2017-10-26T06:47:26.049Z,101151
2017-10-26T06:49:54.327Z,101137
2017-10-26T06:52:22.649Z,101116
2017-10-26T06:54:50.949Z,101116
2017-10-26T06:57:19.226Z,101125
2017-10-26T06:59:47.549Z,101119
2017-10-26T07:02:16.005Z,101111
2017-10-26T07:04:44.315Z,101119
2017-10-26T07:07:13.494Z,101127
2017-10-26T07:09:41.767Z,101124
2017-10-26T07:12:10.028Z,101126
2017-10-26T07:14:38.848Z,101127
2017-10-26T07:17:07.156Z,101137
2017-10-26T07:19:35.524Z,101130
2017-10-26T07:22:03.859Z,101138
2017-10-26T07:24:32.139Z,101141
2017-10-26T07:27:00.526Z,101141
2017-10-26T07:29:28.810Z,101142
2017-10-26T07:31:57.972Z,101140
2017-10-26T07:34:27.142Z,101133
2017-10-26T07:36:55.456Z,101132
2017-10-26T07:39:24.277Z,101133
2017-10-26T07:41:52.692Z,101129
2017-10-26T07:44:20.948Z,101133
2017-10-26T07:46:49.225Z,101126
2017-10-26T07:49:17.528Z,101135
2017-10-26T07:51:45.903Z,101132
2017-10-26T07:54:14.204Z,101129
2017-10-26T07:56:42.481Z,101128
2017-10-26T07:59:10.763Z,101120
2017-10-26T08:01:39.139Z,101109
2017-10-26T08:04:07.490Z,101100
2017-10-26T08:06:35.786Z,101112
2017-10-26T08:09:04.047Z,101129
2017-10-26T08:11:32.384Z,101117
2017-10-26T08:14:01.480Z,101113
2017-10-26T08:16:30.502Z,101119
2017-10-26T08:18:58.773Z,101128
2017-10-26T08:21:27.877Z,101120
2017-10-26T08:23:56.151Z,101117
2017-10-26T08:26:24.430Z,101119
2017-10-26T08:28:52.723Z,101131
2017-10-26T08:31:21.049Z,101127
2017-10-26T08:33:50.131Z,101125
2017-10-26T08:36:19.168Z,101119
2017-10-26T08:38:47.439Z,101117
2017-10-26T08:41:15.767Z,101119
2017-10-26T08:43:44.040Z,101109
2017-10-26T08:46:13.106Z,101114
2017-10-26T08:48:41.412Z,101114
2017-10-26T08:51:09.657Z,101125
2017-10-26T08:53:37.915Z,101130
2017-10-26T08:56:06.250Z,101125
2017-10-26T08:58:35.269Z,101127
2017-10-26T09:01:03.516Z,101131
2017-10-26T09:03:32.559Z,101125
2017-10-26T09:06:00.896Z,101111
2017-10-26T09:08:29.983Z,101114
2017-10-26T09:10:59.036Z,101129
2017-10-26T09:13:27.332Z,101116
2017-10-26T09:15:56.179Z,101104
2017-10-26T09:18:24.425Z,101108
2017-10-26T09:20:52.682Z,101089
2017-10-26T09:23:21.014Z,101086
2017-10-26T09:25:49.247Z,101099
2017-10-26T09:28:18.333Z,101091
2017-10-26T09:30:47.338Z,101078
2017-10-26T09:33:21.995Z,101064
2017-10-26T09:35:50.245Z,101055
2017-10-26T09:38:18.488Z,101050
2017-10-26T09:40:46.796Z,101072
2017-10-26T09:43:15.800Z,101072
2017-10-26T09:45:44.050Z,101073
2017-10-26T09:48:13.254Z,101067
2017-10-26T09:50:41.488Z,101069
2017-10-26T09:53:09.735Z,101062
2017-10-26T09:55:38.034Z,101074
2017-10-26T09:58:06.282Z,101060
2017-10-26T10:00:34.538Z,101056
2017-10-26T10:03:03.632Z,101072
2017-10-26T10:05:32.653Z,101064
2017-10-26T10:08:00.908Z,101059
2017-10-26T10:10:30.031Z,101051
2017-10-26T10:12:58.300Z,101062
2017-10-26T10:15:26.533Z,101072
2017-10-26T10:17:55.636Z,101066
2017-10-26T10:20:24.656Z,101059
2017-10-26T10:22:52.896Z,101054
2017-10-26T10:25:22.071Z,101054
2017-10-26T10:27:50.320Z,101057
2017-10-26T10:30:18.571Z,101053
2017-10-26T10:32:46.873Z,101051
2017-10-26T10:35:15.157Z,101046
2017-10-26T10:37:43.437Z,101049
2017-10-26T10:40:11.779Z,101044
2017-10-26T10:42:40.040Z,101034
2017-10-26T10:45:09.057Z,101044
2017-10-26T10:47:37.397Z,101033
2017-10-26T10:50:06.408Z,101032
2017-10-26T10:52:34.687Z,101035
2017-10-26T10:55:02.976Z,101027
2017-10-26T10:57:31.252Z,101015
2017-10-26T11:00:04.978Z,101000
2017-10-26T11:02:33.215Z,101001
2017-10-26T11:05:01.494Z,100991
2017-10-26T11:07:29.793Z,100984
2017-10-26T11:09:58.047Z,100981
2017-10-26T11:12:26.318Z,100984
2017-10-26T11:14:54.759Z,100979
2017-10-26T11:17:23.024Z,100974
2017-10-26T11:19:51.265Z,100978
2017-10-26T11:22:19.683Z,100970
2017-10-26T11:24:47.976Z,100967
2017-10-26T11:27:17.300Z,100958
2017-10-26T11:29:46.350Z,100960
2017-10-26T11:32:14.617Z,100957
2017-10-26T11:34:44.141Z,100951
2017-10-26T11:37:12.471Z,100950
2017-10-26T11:39:40.736Z,100951
2017-10-26T11:42:08.996Z,100957
2017-10-26T11:44:38.084Z,100954
2017-10-26T11:47:07.116Z,100943
2017-10-26T11:49:35.422Z,100950
2017-10-26T11:52:03.758Z,100940
2017-10-26T11:54:32.013Z,100939
2017-10-26T11:57:01.056Z,100941
2017-10-26T11:59:29.393Z,100936
2017-10-26T12:01:57.633Z,100935
2017-10-26T12:04:25.918Z,100935
2017-10-26T12:06:54.236Z,100936
2017-10-26T12:09:22.575Z,100933
2017-10-26T12:11:50.835Z,100926
2017-10-26T12:14:19.142Z,100923
2017-10-26T12:16:48.148Z,100929
2017-10-26T12:19:16.393Z,100913
2017-10-26T12:21:44.703Z,100923
2017-10-26T12:24:13.090Z,100932
2017-10-26T12:26:41.354Z,100926
2017-10-26T12:29:09.661Z,100924
2017-10-26T12:31:37.915Z,100911
2017-10-26T12:34:06.166Z,100915
2017-10-26T12:36:35.287Z,100905
2017-10-26T12:39:03.694Z,100894
2017-10-26T12:41:31.945Z,100885
2017-10-26T12:44:00.308Z,100884
2017-10-26T12:46:28.596Z,100880
2017-10-26T12:48:56.841Z,100886
2017-10-26T12:51:26.314Z,100881
2017-10-26T12:53:54.589Z,100895
2017-10-26T12:56:22.941Z,100880
2017-10-26T12:58:51.417Z,100874
2017-10-26T13:01:19.708Z,100879
2017-10-26T13:03:47.983Z,100885
2017-10-26T13:06:16.312Z,100876
2017-10-26T13:08:44.606Z,100875
2017-10-26T13:11:12.873Z,100865
2017-10-26T13:13:42.016Z,100868
2017-10-26T13:16:10.266Z,100878
2017-10-26T13:18:38.535Z,100874
2017-10-26T13:21:06.840Z,100871
2017-10-26T13:23:35.093Z,100868
2017-10-26T13:26:03.359Z,100865
2017-10-26T13:28:31.713Z,100859
2017-10-26T13:30:59.974Z,100858
2017-10-26T13:33:28.212Z,100860
2017-10-26T13:35:56.540Z,100858
2017-10-26T13:38:25.584Z,100852
2017-10-26T13:40:53.840Z,100862
2017-10-26T13:43:22.165Z,100852
2017-10-26T13:45:50.443Z,100854
2017-10-26T13:48:18.691Z,100868
2017-10-26T13:50:47.144Z,100871
2017-10-26T13:53:15.398Z,100867
2017-10-26T13:55:43.646Z,100871
2017-10-26T13:58:11.931Z,100870
2017-10-26T14:00:41.019Z,100872
2017-10-26T14:03:09.265Z,100862
2017-10-26T14:05:37.507Z,100858
2017-10-26T14:08:06.178Z,100865
2017-10-26T14:10:34.501Z,100852
2017-10-26T14:13:02.783Z,100851
2017-10-26T14:15:31.071Z,100851
2017-10-26T14:17:59.412Z,100851
2017-10-26T14:20:27.667Z,100847
2017-10-26T14:22:55.939Z,100845
2017-10-26T14:25:24.357Z,100836
2017-10-26T14:27:52.604Z,100849
2017-10-26T14:30:20.941Z,100846
2017-10-26T14:32:49.259Z,100846
2017-10-26T14:35:17.510Z,100851
2017-10-26T14:37:46.542Z,100850
2017-10-26T14:40:14.875Z,100847
2017-10-26T14:42:43.887Z,100850
2017-10-26T14:45:12.144Z,100844
2017-10-26T14:47:41.253Z,100845
2017-10-26T14:50:09.524Z,100845
2017-10-26T14:52:37.776Z,100837
2017-10-26T14:55:06.103Z,100831
2017-10-26T14:57:34.371Z,100836
2017-10-26T15:00:02.649Z,100837
2017-10-26T15:02:30.977Z,100835
2017-10-26T15:04:59.269Z,100837
2017-10-26T15:07:28.290Z,100848
2017-10-26T15:09:56.630Z,100850
2017-10-26T15:12:24.861Z,100850
2017-10-26T15:14:53.106Z,100854
2017-10-26T15:17:21.423Z,100846
2017-10-26T15:19:49.678Z,100858
2017-10-26T15:22:17.932Z,100852
2017-10-26T15:24:46.304Z,100858
2017-10-26T15:27:15.305Z,100846
2017-10-26T15:29:43.568Z,100845
2017-10-26T15:32:11.877Z,100843
2017-10-26T15:34:40.274Z,100826
2017-10-26T15:37:08.526Z,100826
2017-10-26T15:39:36.943Z,100821
2017-10-26T15:42:05.207Z,100829
2017-10-26T15:44:33.485Z,100845
2017-10-26T15:47:01.846Z,100834
2017-10-26T15:49:30.126Z,100838
2017-10-26T15:51:58.490Z,100832
2017-10-26T15:54:26.916Z,100832
2017-10-26T15:56:55.251Z,100833
2017-10-26T15:59:23.530Z,100832
2017-10-26T16:01:52.102Z,100831
2017-10-26T16:04:20.456Z,100832
2017-10-26T16:06:49.523Z,100831
2017-10-26T16:09:17.826Z,100832
2017-10-26T16:11:46.997Z,100835
2017-10-26T16:14:15.240Z,100830
2017-10-26T16:16:44.277Z,100844
2017-10-26T16:19:13.392Z,100832
2017-10-26T16:21:41.691Z,100838
2017-10-26T16:24:10.003Z,100835
2017-10-26T16:26:38.407Z,100832
2017-10-26T16:29:06.686Z,100828
2017-10-26T16:31:35.697Z,100831
2017-10-26T16:34:04.034Z,100835
2017-10-26T16:36:32.764Z,100850
2017-10-26T16:39:01.075Z,100844
2017-10-26T16:41:30.331Z,100831
2017-10-26T16:44:00.376Z,100828
2017-10-26T16:46:30.526Z,100832
2017-10-26T16:49:01.099Z,100831
2017-10-26T16:51:29.444Z,100832
2017-10-26T16:53:57.779Z,100830
2017-10-26T16:56:26.105Z,100821
2017-10-26T16:58:54.386Z,100820
2017-10-26T17:01:23.645Z,100820
2017-10-26T17:03:52.793Z,100817
2017-10-26T17:06:21.126Z,100816
2017-10-26T17:08:49.490Z,100812
2017-10-26T17:11:17.748Z,100815
2017-10-26T17:13:46.014Z,100812
2017-10-26T17:16:14.326Z,100812
2017-10-26T17:18:42.586Z,100808
2017-10-26T17:21:10.839Z,100798
2017-10-26T17:23:39.149Z,100790
2017-10-26T17:26:07.437Z,100789
2017-10-26T17:28:35.707Z,100789
2017-10-26T17:31:03.995Z,100790
2017-10-26T17:33:32.351Z,100793
2017-10-26T17:36:00.619Z,100779
2017-10-26T17:38:28.918Z,100778
2017-10-26T17:40:57.282Z,100772
2017-10-26T17:43:25.618Z,100771
2017-10-26T17:45:55.255Z,100777
2017-10-26T17:48:23.548Z,100779
2017-10-26T17:50:52.215Z,100778
2017-10-26T17:53:20.661Z,100779
2017-10-26T17:55:49.717Z,100780
2017-10-26T17:58:17.966Z,100772
2017-10-26T18:00:46.302Z,100772
2017-10-26T18:03:15.360Z,100770
2017-10-26T18:05:44.584Z,100759
2017-10-26T18:08:12.941Z,100753
2017-10-26T18:10:41.226Z,100757
2017-10-26T18:13:09.516Z,100754
2017-10-26T18:15:38.643Z,100752
2017-10-26T18:18:06.933Z,100753
2017-10-26T18:20:35.276Z,100748
2017-10-26T18:23:03.611Z,100735
2017-10-26T18:25:31.975Z,100727
2017-10-26T18:28:00.262Z,100728
2017-10-26T18:30:28.615Z,100727
2017-10-26T18:32:56.895Z,100726
2017-10-26T18:35:25.173Z,100711
2017-10-26T18:37:53.548Z,100732
2017-10-26T18:40:21.808Z,100731
2017-10-26T18:42:50.107Z,100723
2017-10-26T18:45:18.430Z,100726
2017-10-26T18:47:47.756Z,100728
2017-10-26T18:50:16.157Z,100720
2017-10-26T18:52:44.512Z,100717
2017-10-26T18:55:12.791Z,100720
2017-10-26T18:57:41.066Z,100724
2017-10-26T19:00:09.436Z,100718
2017-10-26T19:02:38.067Z,100726
2017-10-26T19:05:07.400Z,100725
2017-10-26T19:07:38.812Z,100713
2017-10-26T19:10:08.284Z,100710
2017-10-26T19:12:36.632Z,100714
2017-10-26T19:15:05.821Z,100706
2017-10-26T19:17:34.485Z,100699
2017-10-26T19:20:02.873Z,100705
2017-10-26T19:22:32.117Z,100700
2017-10-26T19:25:00.878Z,100706
2017-10-26T19:27:29.153Z,100704
2017-10-26T19:29:58.245Z,100712
2017-10-26T19:32:27.319Z,100712
2017-10-26T19:34:55.660Z,100703
2017-10-26T19:37:27.669Z,100713
2017-10-26T19:39:58.363Z,100708
2017-10-26T19:45:07.419Z,100713
2017-10-26T19:47:41.353Z,100715
2017-10-26T19:50:09.886Z,100710
2017-10-26T19:52:38.235Z,100712
2017-10-26T19:55:08.162Z,100712
2017-10-26T19:57:36.435Z,100700
2017-10-26T20:00:04.740Z,100698
2017-10-26T20:02:33.012Z,100691
2017-10-26T20:05:01.290Z,100682
2017-10-26T20:07:29.628Z,100675
2017-10-26T20:09:58.966Z,100679
2017-10-26T20:12:27.221Z,100668
2017-10-26T20:14:56.354Z,100659
2017-10-26T20:17:24.611Z,100664
2017-10-26T20:19:52.868Z,100661
2017-10-26T20:22:21.960Z,100649
2017-10-26T20:24:50.220Z,100645
2017-10-26T20:27:18.527Z,100655
2017-10-26T20:29:46.845Z,100645
2017-10-26T20:32:15.135Z,100641
2017-10-26T20:34:43.378Z,100652
2017-10-26T20:37:11.682Z,100659
2017-10-26T20:39:39.933Z,100655
2017-10-26T20:42:08.178Z,100653
2017-10-26T20:44:36.462Z,100651
2017-10-26T20:47:04.728Z,100648
2017-10-26T20:49:38.570Z,100655
2017-10-26T20:52:12.218Z,100651
2017-10-26T20:54:46.957Z,100641
2017-10-26T20:57:20.851Z,100643
2017-10-26T20:59:55.494Z,100640
2017-10-26T21:02:29.226Z,100640
2017-10-26T21:05:03.197Z,100650
2017-10-26T21:07:37.078Z,100643
2017-10-26T21:10:05.572Z,100637
2017-10-26T21:12:40.068Z,100648
2017-10-26T21:15:08.348Z,100646
2017-10-26T21:17:36.637Z,100643
2017-10-26T21:20:05.669Z,100636
2017-10-26T21:22:33.955Z,100642
2017-10-26T21:25:02.188Z,100641
2017-10-26T21:27:31.264Z,100634
2017-10-26T21:29:59.548Z,100639
2017-10-26T21:32:27.818Z,100631
2017-10-26T21:34:56.061Z,100613
2017-10-26T21:37:24.360Z,100627
2017-10-26T21:39:52.617Z,100611
2017-10-26T21:42:20.893Z,100618
2017-10-26T21:44:49.171Z,100612
2017-10-26T21:47:17.421Z,100608
2017-10-26T21:49:45.686Z,100606
2017-10-26T21:52:14.031Z,100602
2017-10-26T21:54:42.282Z,100604
2017-10-26T21:57:10.537Z,100595
2017-10-26T21:59:38.873Z,100595
2017-10-26T22:02:07.891Z,100593
2017-10-26T22:04:36.159Z,100595
2017-10-26T22:07:04.506Z,100593
2017-10-26T22:09:33.550Z,100598
2017-10-26T22:12:02.123Z,100577
2017-10-26T22:14:30.415Z,100580
2017-10-26T22:16:58.703Z,100586
2017-10-26T22:19:26.977Z,100575
2017-10-26T22:21:55.321Z,100570
2017-10-26T22:24:25.852Z,100562
2017-10-26T22:26:55.677Z,100561
2017-10-26T22:29:28.404Z,100554
2017-10-26T22:31:56.697Z,100551
2017-10-26T22:34:25.752Z,100550
2017-10-26T22:36:54.000Z,100553
2017-10-26T22:39:22.340Z,100548
2017-10-26T22:41:51.362Z,100542
2017-10-26T22:44:19.634Z,100544
2017-10-26T22:46:47.924Z,100551
2017-10-26T22:49:16.940Z,100545
2017-10-26T22:51:45.193Z,100552
2017-10-26T22:54:13.467Z,100548
2017-10-26T22:56:41.707Z,100547
2017-10-26T22:59:10.752Z,100553
2017-10-26T23:01:39.047Z,100553
2017-10-26T23:04:07.383Z,100545
2017-10-26T23:06:35.700Z,100549
2017-10-26T23:09:04.054Z,100547
2017-10-26T23:11:32.330Z,100552
2017-10-26T23:14:00.814Z,100554
2017-10-26T23:16:29.171Z,100547
2017-10-26T23:18:57.426Z,100540
2017-10-26T23:21:26.429Z,100541
2017-10-26T23:23:54.714Z,100538
2017-10-26T23:26:23.556Z,100532
2017-10-26T23:28:51.892Z,100537
2017-10-26T23:31:20.220Z,100534
2017-10-26T23:33:48.546Z,100529
2017-10-26T23:36:16.786Z,100521
2017-10-26T23:38:45.918Z,100513
2017-10-26T23:41:14.193Z,100518
2017-10-26T23:43:42.479Z,100514
2017-10-26T23:46:10.806Z,100501
2017-10-26T23:48:39.809Z,100495
2017-10-26T23:51:08.877Z,100512
2017-10-26T23:53:37.185Z,100496
2017-10-26T23:56:05.431Z,100495
2017-10-26T23:58:33.707Z,100497
